KBTR/BTR METAR and TAF weather

Enter ICAO airport designator
Station Type Date Time Source
KBTR METAR 2022/05/24 11:53 UTC NOAA

KBTR 241153Z 14005KT 10SM FEW110 22/21 A2990 RMK AO2 SLP125 70030 T02170206 10217 20217 55001


Station Type Date Time Source
KBTR Decoded METAR 2022/05/24 11:53 UTC NOAA

BATON ROUGE METRO RYAN FIELD, LA, United States (KBTR) 30-32N 91-09W 21M
May 24, 2022 - 07:53 AM EDT / 2022.05.24 1153 UTC
Wind: from the SE (140 degrees) at 6 MPH (5 KT):0
Visibility: 10 mile(s):0
Sky conditions: mostly clear
Temperature: 71.1 F (21.7 C)
Dew Point: 69.1 F (20.6 C)
Relative Humidity: 93%
Pressure (altimeter): 29.9 in. Hg (1012 hPa)
Pressure tendency: 0.00 inches (0.1 hPa) lower than three hours ago
ob: KBTR 241153Z 14005KT 10SM FEW110 22/21 A2990 RMK AO2 SLP125 70030 T02170206 10217 20217 55001
cycle: 12

Station Type Date Time Source
KBTR TAF 2022/05/24 12:34 UTC NOAA

TAF KBTR 241132Z 2412/2512 12008KT P6SM SCT010 SCT020 BKN040
FM241600 18012KT P6SM SHRA VCTS BKN025CB BKN060
FM250100 15006KT P6SM SCT020 BKN040
FM250900 16008KT P6SM BKN015

Example: see airport list